sensor_id;sensor_type;location;lat;lon;timestamp;pressure;altitude;pressure_sealevel;temperature;humidity
39555;BME280;25231;48.746;9.234;2022-08-01T00:02:27;96733.22;;;22.53;48.57
39555;BME280;25231;48.746;9.234;2022-08-01T00:04:56;96733.63;;;22.47;48.70
39555;BME280;25231;48.746;9.234;2022-08-01T00:07:21;96743.53;;;22.46;48.78
39555;BME280;25231;48.746;9.234;2022-08-01T00:09:46;96742.38;;;22.38;48.86
39555;BME280;25231;48.746;9.234;2022-08-01T00:12:12;96735.28;;;22.34;49.33
39555;BME280;25231;48.746;9.234;2022-08-01T00:14:37;96736.97;;;22.30;49.50
39555;BME280;25231;48.746;9.234;2022-08-01T00:17:03;96738.75;;;22.34;49.41
39555;BME280;25231;48.746;9.234;2022-08-01T00:19:28;96742.00;;;22.31;49.59
39555;BME280;25231;48.746;9.234;2022-08-01T00:21:53;96734.13;;;22.26;50.02
39555;BME280;25231;48.746;9.234;2022-08-01T00:24:19;96739.56;;;22.21;50.03
39555;BME280;25231;48.746;9.234;2022-08-01T00:26:44;96736.41;;;22.19;50.33
39555;BME280;25231;48.746;9.234;2022-08-01T00:29:09;96744.53;;;22.14;50.28
39555;BME280;25231;48.746;9.234;2022-08-01T00:31:35;96751.97;;;22.04;50.74
39555;BME280;25231;48.746;9.234;2022-08-01T00:34:00;96751.59;;;21.96;51.21
39555;BME280;25231;48.746;9.234;2022-08-01T00:36:25;96756.53;;;22.03;50.87
39555;BME280;25231;48.746;9.234;2022-08-01T00:38:51;96753.06;;;22.03;51.14
39555;BME280;25231;48.746;9.234;2022-08-01T00:41:16;96752.88;;;21.99;51.16
39555;BME280;25231;48.746;9.234;2022-08-01T00:43:42;96751.59;;;21.96;51.20
39555;BME280;25231;48.746;9.234;2022-08-01T00:46:07;96751.31;;;21.98;51.41
39555;BME280;25231;48.746;9.234;2022-08-01T00:48:32;96747.56;;;21.99;51.65
39555;BME280;25231;48.746;9.234;2022-08-01T00:50:58;96749.72;;;21.83;51.93
39555;BME280;25231;48.746;9.234;2022-08-01T00:53:24;96747.19;;;21.78;52.11
39555;BME280;25231;48.746;9.234;2022-08-01T00:55:50;96746.78;;;21.71;52.48
39555;BME280;25231;48.746;9.234;2022-08-01T00:58:15;96749.53;;;21.80;52.22
39555;BME280;25231;48.746;9.234;2022-08-01T01:00:41;96748.25;;;21.77;52.71
39555;BME280;25231;48.746;9.234;2022-08-01T01:03:07;96746.38;;;21.64;52.93
39555;BME280;25231;48.746;9.234;2022-08-01T01:05:38;96748.16;;;21.69;53.04
39555;BME280;25231;48.746;9.234;2022-08-01T01:08:13;96746.38;;;21.64;53.49
39555;BME280;25231;48.746;9.234;2022-08-01T01:11:03;96754.88;;;21.52;53.98
39555;BME280;25231;48.746;9.234;2022-08-01T01:13:43;96754.31;;;21.55;54.11
39555;BME280;25231;48.746;9.234;2022-08-01T01:16:13;96752.59;;;21.46;54.76
39555;BME280;25231;48.746;9.234;2022-08-01T01:18:46;96753.13;;;21.48;54.73
39555;BME280;25231;48.746;9.234;2022-08-01T01:26:49;96747.19;;;21.37;55.68
39555;BME280;25231;48.746;9.234;2022-08-01T01:29:19;96760.81;;;21.36;55.88
39555;BME280;25231;48.746;9.234;2022-08-01T01:31:51;96754.09;;;21.38;55.92
39555;BME280;25231;48.746;9.234;2022-08-01T01:34:22;96759.03;;;21.31;56.50
39555;BME280;25231;48.746;9.234;2022-08-01T01:36:49;96752.72;;;21.27;56.69
39555;BME280;25231;48.746;9.234;2022-08-01T01:39:17;96752.22;;;21.39;56.50
39555;BME280;25231;48.746;9.234;2022-08-01T01:41:44;96764.19;;;21.28;56.70
39555;BME280;25231;48.746;9.234;2022-08-01T01:44:10;96760.22;;;21.25;57.00
39555;BME280;25231;48.746;9.234;2022-08-01T01:46:37;96763.97;;;21.24;56.93
39555;BME280;25231;48.746;9.234;2022-08-01T01:49:03;96762.28;;;21.14;57.42
39555;BME280;25231;48.746;9.234;2022-08-01T01:51:29;96767.47;;;21.06;58.08
39555;BME280;25231;48.746;9.234;2022-08-01T01:53:56;96766.69;;;21.05;58.26
39555;BME280;25231;48.746;9.234;2022-08-01T01:56:24;96768.34;;;21.01;58.24
39555;BME280;25231;48.746;9.234;2022-08-01T01:58:57;96767.66;;;21.09;58.27
39555;BME280;25231;48.746;9.234;2022-08-01T02:01:25;96767.06;;;20.99;58.85
39555;BME280;25231;48.746;9.234;2022-08-01T02:03:52;96758.78;;;21.00;58.76
39555;BME280;25231;48.746;9.234;2022-08-01T02:06:19;96760.84;;;21.03;58.54
39555;BME280;25231;48.746;9.234;2022-08-01T02:08:46;96758.69;;;21.05;58.41
39555;BME280;25231;48.746;9.234;2022-08-01T02:11:12;96764.06;;;20.87;58.85
39555;BME280;25231;48.746;9.234;2022-08-01T02:13:43;96762.09;;;20.79;59.05
39555;BME280;25231;48.746;9.234;2022-08-01T02:16:10;96764.94;;;20.82;59.25
39555;BME280;25231;48.746;9.234;2022-08-01T02:18:39;96763.97;;;20.92;58.61
39555;BME280;25231;48.746;9.234;2022-08-01T02:21:08;96775.47;;;20.73;59.18
39555;BME280;25231;48.746;9.234;2022-08-01T02:23:36;96776.25;;;20.74;59.34
39555;BME280;25231;48.746;9.234;2022-08-01T02:26:07;96773.47;;;20.65;59.84
39555;BME280;25231;48.746;9.234;2022-08-01T02:28:38;96774.56;;;20.64;59.64
39555;BME280;25231;48.746;9.234;2022-08-01T02:31:11;96771.63;;;20.66;59.78
39555;BME280;25231;48.746;9.234;2022-08-01T02:33:42;96779.09;;;20.64;60.27
39555;BME280;25231;48.746;9.234;2022-08-01T02:36:08;96776.84;;;20.71;60.10
39555;BME280;25231;48.746;9.234;2022-08-01T02:38:40;96774.84;;;20.63;60.29
39555;BME280;25231;48.746;9.234;2022-08-01T02:41:09;96782.56;;;20.46;61.48
39555;BME280;25231;48.746;9.234;2022-08-01T02:43:40;96780.25;;;20.58;61.16
39555;BME280;25231;48.746;9.234;2022-08-01T02:46:13;96780.34;;;20.53;61.47
39555;BME280;25231;48.746;9.234;2022-08-01T02:48:42;96776.31;;;20.55;61.55
39555;BME280;25231;48.746;9.234;2022-08-01T02:51:09;96784.94;;;20.47;62.07
39555;BME280;25231;48.746;9.234;2022-08-01T02:53:38;96778.75;;;20.52;62.05
39555;BME280;25231;48.746;9.234;2022-08-01T02:56:07;96782.88;;;20.44;62.26
39555;BME280;25231;48.746;9.234;2022-08-01T02:58:35;96783.16;;;20.43;62.61
39555;BME280;25231;48.746;9.234;2022-08-01T03:01:02;96784.50;;;20.40;62.70
39555;BME280;25231;48.746;9.234;2022-08-01T03:03:29;96782.44;;;20.37;63.09
39555;BME280;25231;48.746;9.234;2022-08-01T03:05:56;96775.25;;;20.38;63.17
39555;BME280;25231;48.746;9.234;2022-08-01T03:08:23;96783.34;;;20.27;63.62
39555;BME280;25231;48.746;9.234;2022-08-01T03:10:50;96780.91;;;20.31;63.68
39555;BME280;25231;48.746;9.234;2022-08-01T03:13:17;96783.84;;;20.29;63.77
39555;BME280;25231;48.746;9.234;2022-08-01T03:15:44;96787.09;;;20.26;63.85
39555;BME280;25231;48.746;9.234;2022-08-01T03:18:11;96783.56;;;20.31;63.70
39555;BME280;25231;48.746;9.234;2022-08-01T03:20:38;96786.03;;;20.27;64.01
39555;BME280;25231;48.746;9.234;2022-08-01T03:23:07;96785.22;;;20.27;63.96
39555;BME280;25231;48.746;9.234;2022-08-01T03:25:35;96788.88;;;20.12;64.64
39555;BME280;25231;48.746;9.234;2022-08-01T03:28:03;96792.47;;;20.03;64.98
39555;BME280;25231;48.746;9.234;2022-08-01T03:30:30;96795.72;;;20.00;65.19
39555;BME280;25231;48.746;9.234;2022-08-01T03:32:56;96789.34;;;19.96;65.43
39555;BME280;25231;48.746;9.234;2022-08-01T03:35:29;96792.09;;;19.90;65.70
39555;BME280;25231;48.746;9.234;2022-08-01T03:37:56;96795.25;;;19.92;65.85
39555;BME280;25231;48.746;9.234;2022-08-01T03:43:04;96795.66;;;20.05;65.71
39555;BME280;25231;48.746;9.234;2022-08-01T03:45:33;96789.44;;;19.90;66.18
39555;BME280;25231;48.746;9.234;2022-08-01T03:48:01;96800.31;;;19.94;66.27
39555;BME280;25231;48.746;9.234;2022-08-01T03:50:28;96792.66;;;19.87;66.57
39555;BME280;25231;48.746;9.234;2022-08-01T03:52:57;96795.00;;;19.94;66.37
39555;BME280;25231;48.746;9.234;2022-08-01T03:55:24;96798.59;;;20.03;66.34
39555;BME280;25231;48.746;9.234;2022-08-01T03:57:50;96793.25;;;20.03;66.42
39555;BME280;25231;48.746;9.234;2022-08-01T04:00:16;96797.13;;;19.92;67.23
39555;BME280;25231;48.746;9.234;2022-08-01T04:02:45;96795.41;;;20.01;67.01
39555;BME280;25231;48.746;9.234;2022-08-01T04:05:11;96796.34;;;19.91;67.74
39555;BME280;25231;48.746;9.234;2022-08-01T04:07:36;96800.78;;;19.96;67.67
39555;BME280;25231;48.746;9.234;2022-08-01T04:10:04;96790.00;;;20.06;67.62
39555;BME280;25231;48.746;9.234;2022-08-01T04:12:30;96795.16;;;20.21;67.03
39555;BME280;25231;48.746;9.234;2022-08-01T04:14:55;96796.88;;;20.31;66.80
39555;BME280;25231;48.746;9.234;2022-08-01T04:17:21;96799.41;;;20.41;66.57
39555;BME280;25231;48.746;9.234;2022-08-01T04:19:46;96797.81;;;20.40;66.50
39555;BME280;25231;48.746;9.234;2022-08-01T04:22:14;96803.56;;;20.28;67.12
39555;BME280;25231;48.746;9.234;2022-08-01T04:24:41;96792.81;;;20.39;67.17
39555;BME280;25231;48.746;9.234;2022-08-01T04:27:13;96808.72;;;20.44;67.12
39555;BME280;25231;48.746;9.234;2022-08-01T04:29:40;96803.50;;;20.52;66.78
39555;BME280;25231;48.746;9.234;2022-08-01T04:32:08;96809.25;;;20.78;65.88
39555;BME280;25231;48.746;9.234;2022-08-01T04:34:38;96801.03;;;20.74;66.13
39555;BME280;25231;48.746;9.234;2022-08-01T04:37:07;96814.50;;;20.83;66.14
39555;BME280;25231;48.746;9.234;2022-08-01T04:39:36;96813.53;;;20.93;65.77
39555;BME280;25231;48.746;9.234;2022-08-01T04:42:04;96811.31;;;21.13;65.30
39555;BME280;25231;48.746;9.234;2022-08-01T04:44:30;96813.88;;;21.05;65.64
39555;BME280;25231;48.746;9.234;2022-08-01T04:46:59;96818.78;;;20.98;65.91
39555;BME280;25231;48.746;9.234;2022-08-01T04:49:25;96822.75;;;21.00;66.47
39555;BME280;25231;48.746;9.234;2022-08-01T04:51:55;96823.13;;;21.07;65.72
39555;BME280;25231;48.746;9.234;2022-08-01T04:54:28;96815.94;;;21.08;66.17
39555;BME280;25231;48.746;9.234;2022-08-01T04:56:55;96824.53;;;21.05;66.29
39555;BME280;25231;48.746;9.234;2022-08-01T04:59:27;96811.75;;;21.21;65.88
39555;BME280;25231;48.746;9.234;2022-08-01T05:02:09;96811.22;;;21.65;64.73
39555;BME280;25231;48.746;9.234;2022-08-01T05:04:35;96811.81;;;22.03;63.31
39555;BME280;25231;48.746;9.234;2022-08-01T05:07:02;96804.19;;;22.10;62.78
39555;BME280;25231;48.746;9.234;2022-08-01T05:09:27;96805.47;;;21.85;64.10
39555;BME280;25231;48.746;9.234;2022-08-01T05:11:52;96801.72;;;21.72;64.34
39555;BME280;25231;48.746;9.234;2022-08-01T05:14:18;96800.16;;;21.71;64.56
39555;BME280;25231;48.746;9.234;2022-08-01T05:16:44;96800.81;;;21.90;64.30
39555;BME280;25231;48.746;9.234;2022-08-01T05:19:11;96804.28;;;21.64;65.47
39555;BME280;25231;48.746;9.234;2022-08-01T05:21:36;96798.56;;;21.56;65.94
39555;BME280;25231;48.746;9.234;2022-08-01T05:24:03;96799.19;;;22.66;62.58
39555;BME280;25231;48.746;9.234;2022-08-01T05:26:28;96795.53;;;23.07;60.86
39555;BME280;25231;48.746;9.234;2022-08-01T05:28:54;96794.75;;;23.37;59.76
39555;BME280;25231;48.746;9.234;2022-08-01T05:31:19;96804.59;;;23.98;57.59
39555;BME280;25231;48.746;9.234;2022-08-01T05:33:44;96804.19;;;24.31;57.11
39555;BME280;25231;48.746;9.234;2022-08-01T05:36:09;96812.09;;;24.62;55.63
39555;BME280;25231;48.746;9.234;2022-08-01T05:38:35;96810.50;;;24.69;55.43
39555;BME280;25231;48.746;9.234;2022-08-01T05:41:00;96806.41;;;24.63;55.19
39555;BME280;25231;48.746;9.234;2022-08-01T05:43:26;96808.31;;;24.46;55.57
39555;BME280;25231;48.746;9.234;2022-08-01T05:45:51;96812.31;;;24.00;57.00
39555;BME280;25231;48.746;9.234;2022-08-01T05:48:16;96815.28;;;23.98;57.44
39555;BME280;25231;48.746;9.234;2022-08-01T05:50:42;96820.88;;;24.19;57.26
39555;BME280;25231;48.746;9.234;2022-08-01T05:53:07;96814.84;;;24.05;57.37
39555;BME280;25231;48.746;9.234;2022-08-01T05:55:33;96820.34;;;24.09;57.72
39555;BME280;25231;48.746;9.234;2022-08-01T05:57:59;96826.34;;;24.14;57.26
39555;BME280;25231;48.746;9.234;2022-08-01T06:00:24;96822.56;;;24.07;58.11
39555;BME280;25231;48.746;9.234;2022-08-01T06:02:50;96831.03;;;24.57;56.75
39555;BME280;25231;48.746;9.234;2022-08-01T06:05:15;96826.13;;;25.02;55.58
39555;BME280;25231;48.746;9.234;2022-08-01T06:07:40;96825.31;;;25.18;54.53
39555;BME280;25231;48.746;9.234;2022-08-01T06:10:06;96825.75;;;25.20;54.01
39555;BME280;25231;48.746;9.234;2022-08-01T06:12:33;96827.81;;;25.23;54.20
39555;BME280;25231;48.746;9.234;2022-08-01T06:14:58;96829.50;;;25.45;54.08
39555;BME280;25231;48.746;9.234;2022-08-01T06:17:24;96825.59;;;25.25;54.48
39555;BME280;25231;48.746;9.234;2022-08-01T06:19:49;96825.00;;;25.11;54.31
39555;BME280;25231;48.746;9.234;2022-08-01T06:22:14;96831.31;;;25.15;54.39
39555;BME280;25231;48.746;9.234;2022-08-01T06:24:40;96826.88;;;25.75;52.91
39555;BME280;25231;48.746;9.234;2022-08-01T06:27:05;96820.16;;;25.60;52.85
39555;BME280;25231;48.746;9.234;2022-08-01T06:29:31;96833.50;;;25.77;52.78
39555;BME280;25231;48.746;9.234;2022-08-01T06:31:57;96823.41;;;26.03;51.81
39555;BME280;25231;48.746;9.234;2022-08-01T06:34:23;96822.34;;;26.25;51.61
39555;BME280;25231;48.746;9.234;2022-08-01T06:36:48;96823.75;;;26.31;51.25
39555;BME280;25231;48.746;9.234;2022-08-01T06:39:13;96820.72;;;26.03;51.94
39555;BME280;25231;48.746;9.234;2022-08-01T06:41:39;96821.06;;;26.02;51.93
39555;BME280;25231;48.746;9.234;2022-08-01T06:44:06;96827.41;;;26.47;51.14
39555;BME280;25231;48.746;9.234;2022-08-01T06:46:32;96822.44;;;26.79;50.16
39555;BME280;25231;48.746;9.234;2022-08-01T06:48:57;96829.91;;;26.32;51.46
39555;BME280;25231;48.746;9.234;2022-08-01T06:51:23;96832.09;;;26.80;50.50
39555;BME280;25231;48.746;9.234;2022-08-01T06:53:48;96829.72;;;26.99;50.06
39555;BME280;25231;48.746;9.234;2022-08-01T06:56:13;96829.44;;;27.13;49.52
39555;BME280;25231;48.746;9.234;2022-08-01T06:58:39;96834.09;;;26.83;50.10
39555;BME280;25231;48.746;9.234;2022-08-01T07:01:05;96828.31;;;27.14;49.49
39555;BME280;25231;48.746;9.234;2022-08-01T07:03:32;96825.13;;;27.45;48.77
39555;BME280;25231;48.746;9.234;2022-08-01T07:05:58;96832.72;;;26.77;50.09
39555;BME280;25231;48.746;9.234;2022-08-01T07:08:23;96830.91;;;26.19;51.34
39555;BME280;25231;48.746;9.234;2022-08-01T07:10:49;96825.72;;;26.64;50.67
39555;BME280;25231;48.746;9.234;2022-08-01T07:13:14;96831.94;;;26.76;49.62
39555;BME280;25231;48.746;9.234;2022-08-01T07:15:45;96831.34;;;26.71;49.95
39555;BME280;25231;48.746;9.234;2022-08-01T07:18:11;96829.19;;;26.64;49.81
39555;BME280;25231;48.746;9.234;2022-08-01T07:20:37;96830.84;;;26.57;50.40
39555;BME280;25231;48.746;9.234;2022-08-01T07:23:02;96832.59;;;25.01;53.44
39555;BME280;25231;48.746;9.234;2022-08-01T07:25:28;96838.91;;;25.05;53.42
39555;BME280;25231;48.746;9.234;2022-08-01T07:27:53;96832.47;;;26.49;50.38
39555;BME280;25231;48.746;9.234;2022-08-01T07:30:19;96829.19;;;27.06;48.56
39555;BME280;25231;48.746;9.234;2022-08-01T07:32:44;96823.69;;;27.02;49.16
39555;BME280;25231;48.746;9.234;2022-08-01T07:35:10;96823.31;;;26.92;48.99
39555;BME280;25231;48.746;9.234;2022-08-01T07:37:35;96829.44;;;26.92;48.82
39555;BME280;25231;48.746;9.234;2022-08-01T07:40:01;96826.63;;;26.68;49.30
39555;BME280;25231;48.746;9.234;2022-08-01T07:42:29;96823.44;;;26.86;49.05
39555;BME280;25231;48.746;9.234;2022-08-01T07:44:54;96832.94;;;26.72;49.26
39555;BME280;25231;48.746;9.234;2022-08-01T07:47:24;96827.00;;;26.99;48.79
39555;BME280;25231;48.746;9.234;2022-08-01T07:49:49;96827.00;;;27.32;47.83
39555;BME280;25231;48.746;9.234;2022-08-01T07:52:15;96817.00;;;27.78;46.72
39555;BME280;25231;48.746;9.234;2022-08-01T07:54:40;96825.25;;;26.82;48.61
39555;BME280;25231;48.746;9.234;2022-08-01T07:57:05;96819.69;;;26.17;50.51
39555;BME280;25231;48.746;9.234;2022-08-01T07:59:31;96820.69;;;26.62;49.94
39555;BME280;25231;48.746;9.234;2022-08-01T08:01:56;96830.16;;;25.34;52.39
39555;BME280;25231;48.746;9.234;2022-08-01T08:04:22;96833.72;;;25.55;52.26
39555;BME280;25231;48.746;9.234;2022-08-01T08:06:47;96833.31;;;26.12;51.45
39555;BME280;25231;48.746;9.234;2022-08-01T08:09:14;96825.25;;;26.82;49.37
39555;BME280;25231;48.746;9.234;2022-08-01T08:11:43;96822.34;;;27.53;47.85
39555;BME280;25231;48.746;9.234;2022-08-01T08:14:09;96820.13;;;28.04;46.16
39555;BME280;25231;48.746;9.234;2022-08-01T08:16:34;96820.25;;;27.71;46.32
39555;BME280;25231;48.746;9.234;2022-08-01T08:19:00;96825.44;;;27.43;47.12
39555;BME280;25231;48.746;9.234;2022-08-01T08:21:25;96823.22;;;26.79;48.78
39555;BME280;25231;48.746;9.234;2022-08-01T08:23:50;96817.78;;;26.46;49.11
39555;BME280;25231;48.746;9.234;2022-08-01T08:26:34;96813.47;;;26.87;48.85
39555;BME280;25231;48.746;9.234;2022-08-01T08:28:59;96814.66;;;26.98;48.36
39555;BME280;25231;48.746;9.234;2022-08-01T08:31:25;96817.16;;;26.82;48.46
39555;BME280;25231;48.746;9.234;2022-08-01T08:33:50;96814.78;;;27.35;47.75
39555;BME280;25231;48.746;9.234;2022-08-01T08:36:16;96817.63;;;26.84;48.30
39555;BME280;25231;48.746;9.234;2022-08-01T08:38:41;96817.56;;;26.93;48.55
39555;BME280;25231;48.746;9.234;2022-08-01T08:41:07;96814.72;;;26.57;49.22
39555;BME280;25231;48.746;9.234;2022-08-01T08:43:35;96809.69;;;26.26;50.40
39555;BME280;25231;48.746;9.234;2022-08-01T08:46:01;96814.66;;;26.15;50.05
39555;BME280;25231;48.746;9.234;2022-08-01T08:48:26;96814.91;;;26.22;50.89
39555;BME280;25231;48.746;9.234;2022-08-01T08:50:52;96809.84;;;26.50;49.34
39555;BME280;25231;48.746;9.234;2022-08-01T08:53:18;96805.28;;;25.92;50.81
39555;BME280;25231;48.746;9.234;2022-08-01T08:55:44;96809.44;;;26.19;50.07
39555;BME280;25231;48.746;9.234;2022-08-01T08:58:12;96817.69;;;26.14;50.80
39555;BME280;25231;48.746;9.234;2022-08-01T09:00:39;96812.63;;;26.12;50.48
39555;BME280;25231;48.746;9.234;2022-08-01T09:03:05;96810.25;;;26.61;49.32
39555;BME280;25231;48.746;9.234;2022-08-01T09:05:30;96819.81;;;26.91;48.44
39555;BME280;25231;48.746;9.234;2022-08-01T09:07:56;96815.41;;;27.52;47.54
39555;BME280;25231;48.746;9.234;2022-08-01T09:10:21;96809.38;;;27.80;46.15
39555;BME280;25231;48.746;9.234;2022-08-01T09:13:22;96814.94;;;27.05;47.40
39555;BME280;25231;48.746;9.234;2022-08-01T09:15:49;96814.47;;;27.48;47.51
39555;BME280;25231;48.746;9.234;2022-08-01T09:18:41;96823.13;;;27.54;47.33
39555;BME280;25231;48.746;9.234;2022-08-01T09:21:15;96823.53;;;26.78;49.04
39555;BME280;25231;48.746;9.234;2022-08-01T09:26:16;96815.22;;;26.29;50.39
39555;BME280;25231;48.746;9.234;2022-08-01T09:28:43;96816.06;;;26.42;50.82
39555;BME280;25231;48.746;9.234;2022-08-01T09:31:11;96820.88;;;26.07;51.57
39555;BME280;25231;48.746;9.234;2022-08-01T09:33:56;96823.44;;;26.74;49.45
39555;BME280;25231;48.746;9.234;2022-08-01T09:36:25;96832.84;;;26.09;51.10
39555;BME280;25231;48.746;9.234;2022-08-01T09:38:52;96828.94;;;26.57;50.35
39555;BME280;25231;48.746;9.234;2022-08-01T09:41:28;96831.28;;;26.79;49.75
39555;BME280;25231;48.746;9.234;2022-08-01T09:43:54;96828.56;;;27.33;49.21
39555;BME280;25231;48.746;9.234;2022-08-01T09:46:20;96832.19;;;27.04;49.39
39555;BME280;25231;48.746;9.234;2022-08-01T09:51:37;96817.91;;;26.00;50.74
39555;BME280;25231;48.746;9.234;2022-08-01T09:54:04;96824.56;;;25.94;51.11
39555;BME280;25231;48.746;9.234;2022-08-01T09:56:38;96826.72;;;25.80;52.00
39555;BME280;25231;48.746;9.234;2022-08-01T09:59:05;96821.00;;;25.81;52.48
39555;BME280;25231;48.746;9.234;2022-08-01T10:01:49;96822.03;;;25.59;52.49
39555;BME280;25231;48.746;9.234;2022-08-01T10:04:19;96815.06;;;25.67;53.49
39555;BME280;25231;48.746;9.234;2022-08-01T10:06:49;96831.38;;;25.45;53.60
39555;BME280;25231;48.746;9.234;2022-08-01T10:09:28;96817.31;;;25.56;53.31
39555;BME280;25231;48.746;9.234;2022-08-01T10:11:55;96818.03;;;25.74;52.99
39555;BME280;25231;48.746;9.234;2022-08-01T10:14:22;96815.44;;;25.57;52.89
39555;BME280;25231;48.746;9.234;2022-08-01T10:16:51;96815.28;;;25.45;53.70
39555;BME280;25231;48.746;9.234;2022-08-01T10:19:18;96802.63;;;25.62;53.47
39555;BME280;25231;48.746;9.234;2022-08-01T10:21:44;96804.31;;;25.67;52.82
39555;BME280;25231;48.746;9.234;2022-08-01T10:24:12;96809.34;;;26.06;51.88
39555;BME280;25231;48.746;9.234;2022-08-01T10:26:39;96803.16;;;26.56;50.38
39555;BME280;25231;48.746;9.234;2022-08-01T10:29:05;96804.19;;;26.43;50.89
39555;BME280;25231;48.746;9.234;2022-08-01T10:31:31;96805.91;;;25.97;51.85
39555;BME280;25231;48.746;9.234;2022-08-01T10:33:58;96802.50;;;26.59;50.66
39555;BME280;25231;48.746;9.234;2022-08-01T10:36:24;96797.19;;;26.00;52.09
39555;BME280;25231;48.746;9.234;2022-08-01T10:38:50;96794.03;;;25.98;51.57
39555;BME280;25231;48.746;9.234;2022-08-01T10:41:18;96796.50;;;26.12;51.96
39555;BME280;25231;48.746;9.234;2022-08-01T10:43:43;96790.06;;;26.04;52.29
39555;BME280;25231;48.746;9.234;2022-08-01T10:46:09;96792.41;;;26.35;51.48
39555;BME280;25231;48.746;9.234;2022-08-01T10:48:58;96794.63;;;26.54;50.35
39555;BME280;25231;48.746;9.234;2022-08-01T10:51:26;96797.69;;;26.85;48.86
39555;BME280;25231;48.746;9.234;2022-08-01T10:53:53;96795.72;;;27.40;47.61
39555;BME280;25231;48.746;9.234;2022-08-01T10:56:19;96787.94;;;27.26;47.81
39555;BME280;25231;48.746;9.234;2022-08-01T10:58:46;96788.66;;;26.69;49.07
39555;BME280;25231;48.746;9.234;2022-08-01T11:03:45;96784.22;;;26.32;49.28
39555;BME280;25231;48.746;9.234;2022-08-01T11:06:24;96793.81;;;25.83;50.66
39555;BME280;25231;48.746;9.234;2022-08-01T11:08:53;96791.13;;;25.83;50.55
39555;BME280;25231;48.746;9.234;2022-08-01T11:11:19;96794.84;;;25.99;50.73
39555;BME280;25231;48.746;9.234;2022-08-01T11:16:31;96789.34;;;26.16;49.75
39555;BME280;25231;48.746;9.234;2022-08-01T11:18:56;96782.31;;;26.03;50.33
39555;BME280;25231;48.746;9.234;2022-08-01T11:21:22;96784.81;;;26.37;49.50
39555;BME280;25231;48.746;9.234;2022-08-01T11:23:51;96776.44;;;26.72;48.42
39555;BME280;25231;48.746;9.234;2022-08-01T11:26:19;96774.06;;;26.70;47.92
39555;BME280;25231;48.746;9.234;2022-08-01T11:28:46;96769.47;;;26.38;49.01
39555;BME280;25231;48.746;9.234;2022-08-01T11:31:32;96761.31;;;27.00;47.93
39555;BME280;25231;48.746;9.234;2022-08-01T11:33:58;96764.69;;;26.76;48.65
39555;BME280;25231;48.746;9.234;2022-08-01T11:36:24;96771.94;;;26.43;49.01
39555;BME280;25231;48.746;9.234;2022-08-01T11:41:34;96759.09;;;26.81;48.25
39555;BME280;25231;48.746;9.234;2022-08-01T11:47:05;96762.81;;;27.22;47.35
39555;BME280;25231;48.746;9.234;2022-08-01T11:54:39;96765.22;;;27.36;46.75
39555;BME280;25231;48.746;9.234;2022-08-01T11:57:11;96760.16;;;27.46;46.19
39555;BME280;25231;48.746;9.234;2022-08-01T11:59:42;96753.31;;;27.49;46.03
39555;BME280;25231;48.746;9.234;2022-08-01T12:02:30;96756.69;;;27.46;45.79
39555;BME280;25231;48.746;9.234;2022-08-01T12:07:29;96753.56;;;27.56;45.74
39555;BME280;25231;48.746;9.234;2022-08-01T12:12:26;96736.97;;;27.54;44.28
39555;BME280;25231;48.746;9.234;2022-08-01T12:14:56;96734.34;;;27.33;45.01
39555;BME280;25231;48.746;9.234;2022-08-01T12:20:09;96738.06;;;27.65;45.79
39555;BME280;25231;48.746;9.234;2022-08-01T12:22:35;96735.06;;;27.66;45.48
39555;BME280;25231;48.746;9.234;2022-08-01T12:25:08;96729.16;;;27.04;46.15
39555;BME280;25231;48.746;9.234;2022-08-01T12:27:34;96733.91;;;26.86;46.31
39555;BME280;25231;48.746;9.234;2022-08-01T12:30:00;96730.28;;;27.03;45.88
39555;BME280;25231;48.746;9.234;2022-08-01T12:32:29;96733.81;;;27.76;44.72
39555;BME280;25231;48.746;9.234;2022-08-01T12:35:00;96729.03;;;28.22;43.73
39555;BME280;25231;48.746;9.234;2022-08-01T12:37:26;96729.75;;;27.94;44.51
39555;BME280;25231;48.746;9.234;2022-08-01T12:39:52;96723.22;;;27.10;46.33
39555;BME280;25231;48.746;9.234;2022-08-01T12:42:18;96721.44;;;26.69;47.24
39555;BME280;25231;48.746;9.234;2022-08-01T12:44:45;96723.53;;;27.09;46.27
39555;BME280;25231;48.746;9.234;2022-08-01T12:47:13;96725.25;;;27.13;45.57
39555;BME280;25231;48.746;9.234;2022-08-01T12:49:42;96726.19;;;26.84;46.19
39555;BME280;25231;48.746;9.234;2022-08-01T12:52:08;96727.34;;;26.96;46.38
39555;BME280;25231;48.746;9.234;2022-08-01T12:57:44;96724.66;;;26.63;47.61
39555;BME280;25231;48.746;9.234;2022-08-01T13:00:11;96729.31;;;26.86;47.10
39555;BME280;25231;48.746;9.234;2022-08-01T13:02:38;96717.84;;;27.10;46.47
39555;BME280;25231;48.746;9.234;2022-08-01T13:05:05;96717.16;;;27.25;45.83
39555;BME280;25231;48.746;9.234;2022-08-01T13:10:02;96709.47;;;27.73;44.97
39555;BME280;25231;48.746;9.234;2022-08-01T13:12:28;96723.31;;;28.23;44.41
39555;BME280;25231;48.746;9.234;2022-08-01T13:14:54;96720.91;;;27.45;44.92
39555;BME280;25231;48.746;9.234;2022-08-01T13:17:32;96714.28;;;27.67;45.13
39555;BME280;25231;48.746;9.234;2022-08-01T13:19:58;96708.44;;;27.77;45.31
39555;BME280;25231;48.746;9.234;2022-08-01T13:22:37;96706.91;;;27.64;45.20
39555;BME280;25231;48.746;9.234;2022-08-01T13:25:13;96712.22;;;28.00;44.13
39555;BME280;25231;48.746;9.234;2022-08-01T13:27:38;96706.84;;;28.40;42.91
39555;BME280;25231;48.746;9.234;2022-08-01T13:30:15;96702.00;;;27.94;44.31
39555;BME280;25231;48.746;9.234;2022-08-01T13:32:41;96710.34;;;27.64;45.09
39555;BME280;25231;48.746;9.234;2022-08-01T13:35:12;96693.75;;;27.62;46.15
39555;BME280;25231;48.746;9.234;2022-08-01T13:37:42;96707.88;;;27.59;45.99
39555;BME280;25231;48.746;9.234;2022-08-01T13:40:09;96705.53;;;27.70;45.61
39555;BME280;25231;48.746;9.234;2022-08-01T13:42:36;96701.28;;;27.69;46.07
39555;BME280;25231;48.746;9.234;2022-08-01T13:45:03;96699.16;;;27.62;45.77
39555;BME280;25231;48.746;9.234;2022-08-01T13:47:29;96699.91;;;27.39;46.26